createdAt,value
2018-06-09T00:00:39.301Z,55.76
2018-06-09T00:01:39.209Z,55.94
2018-06-09T00:02:39.138Z,56.04
2018-06-09T00:03:39.015Z,56.24
2018-06-09T00:04:38.925Z,56.24
2018-06-09T00:05:38.833Z,56.04
2018-06-09T00:06:38.743Z,57.10
2018-06-09T00:07:38.652Z,56.62
2018-06-09T00:08:38.562Z,56.59
2018-06-09T00:09:38.470Z,57.07
2018-06-09T00:10:38.369Z,57.46
2018-06-09T00:11:38.277Z,56.98
2018-06-09T00:12:38.185Z,57.56
2018-06-09T00:13:38.097Z,57.07
2018-06-09T00:14:38.004Z,56.98
2018-06-09T00:15:37.914Z,57.20
2018-06-09T00:16:37.821Z,56.72
2018-06-09T00:17:37.732Z,57.17
2018-06-09T00:18:37.641Z,57.37
2018-06-09T00:19:37.587Z,57.37
2018-06-09T00:20:37.447Z,57.37
2018-06-09T00:21:37.355Z,57.56
2018-06-09T00:22:37.265Z,57.56
2018-06-09T00:23:37.174Z,57.56
2018-06-09T00:24:37.083Z,57.46
2018-06-09T00:25:36.983Z,57.17
2018-06-09T00:26:36.903Z,57.46
2018-06-09T00:27:36.798Z,57.94
2018-06-09T00:28:36.708Z,57.94
2018-06-09T00:29:36.617Z,57.75
2018-06-09T00:30:36.526Z,57.85
2018-06-09T00:31:36.436Z,57.94
2018-06-09T00:32:36.357Z,57.94
2018-06-09T00:33:36.254Z,58.14
2018-06-09T00:34:36.162Z,58.52
2018-06-09T00:35:36.059Z,58.33
2018-06-09T00:36:35.974Z,58.23
2018-06-09T00:37:35.877Z,58.62
2018-06-09T00:38:35.788Z,58.59
2018-06-09T00:39:35.696Z,59.17
2018-06-09T00:40:35.607Z,59.27
2018-06-09T00:41:35.764Z,59.17
2018-06-09T00:42:35.413Z,59.45
2018-06-09T00:43:35.321Z,59.17
2018-06-09T00:44:35.230Z,59.27
2018-06-09T00:45:35.138Z,59.45
2018-06-09T00:46:35.048Z,59.75
2018-06-09T00:47:34.957Z,59.94
2018-06-09T00:48:34.866Z,59.84
2018-06-09T00:49:34.765Z,61.00
2018-06-09T00:50:34.673Z,61.00
2018-06-09T00:51:34.581Z,60.61
2018-06-09T00:52:34.491Z,60.90
2018-06-09T00:53:34.400Z,61.00
2018-06-09T00:54:34.314Z,61.29
2018-06-09T00:55:34.217Z,61.10
2018-06-09T00:56:34.128Z,60.80
2018-06-09T00:57:34.025Z,61.10
2018-06-09T00:58:33.947Z,60.61
2018-06-09T00:59:33.843Z,61.10
2018-06-09T01:00:33.752Z,61.48
2018-06-09T01:01:33.661Z,61.58
2018-06-09T01:02:33.570Z,61.58
2018-06-09T01:03:33.468Z,61.58
2018-06-09T01:04:33.376Z,61.58
2018-06-09T01:05:33.285Z,61.58
2018-06-09T01:06:33.195Z,61.87
2018-06-09T01:07:33.103Z,62.73
2018-06-09T01:08:33.014Z,62.51
2018-06-09T01:09:32.921Z,62.32
2018-06-09T01:10:32.820Z,62.70
2018-06-09T01:11:32.728Z,62.80
2018-06-09T01:12:32.636Z,62.41
2018-06-09T01:13:32.547Z,63.18
2018-06-09T01:14:32.458Z,63.67
2018-06-09T01:15:32.368Z,62.60
2018-06-09T01:16:32.277Z,63.67
2018-06-09T01:17:32.171Z,64.25
2018-06-09T01:18:32.081Z,64.15
2018-06-09T01:19:31.989Z,63.57
2018-06-09T01:20:31.898Z,63.47
2018-06-09T01:21:31.810Z,64.15
2018-06-09T01:22:31.717Z,64.15
2018-06-09T01:23:31.615Z,64.15
2018-06-09T01:24:31.535Z,63.57
2018-06-09T01:25:31.432Z,64.25
2018-06-09T01:26:31.340Z,63.28
2018-06-09T01:27:31.250Z,63.57
2018-06-09T01:28:31.159Z,64.05
2018-06-09T01:29:31.068Z,64.25
2018-06-09T01:30:30.967Z,64.25
2018-06-09T01:31:30.874Z,63.95
2018-06-09T01:32:30.785Z,64.15
2018-06-09T01:33:30.692Z,63.85
2018-06-09T01:34:30.605Z,64.25
2018-06-09T01:35:30.510Z,64.25
2018-06-09T01:36:30.407Z,64.15
2018-06-09T01:37:30.317Z,63.38
2018-06-09T01:38:30.224Z,63.76
2018-06-09T01:39:30.135Z,63.76
2018-06-09T01:40:30.044Z,64.15
2018-06-09T01:41:29.953Z,63.85
2018-06-09T01:42:29.850Z,63.85
2018-06-09T01:43:29.758Z,63.79
2018-06-09T01:44:29.687Z,63.50
2018-06-09T01:45:29.577Z,63.41
2018-06-09T01:46:29.739Z,62.93
2018-06-09T01:47:29.395Z,63.60
2018-06-09T01:48:29.292Z,63.41
2018-06-09T01:49:29.201Z,64.08
2018-06-09T01:50:29.109Z,64.08
2018-06-09T01:51:29.019Z,63.79
2018-06-09T01:52:28.927Z,63.60
2018-06-09T01:53:28.837Z,63.50
2018-06-09T01:54:28.734Z,63.70
2018-06-09T01:55:28.642Z,64.37
2018-06-09T01:56:28.552Z,63.38
2018-06-09T01:57:28.460Z,63.41
2018-06-09T01:58:28.370Z,63.70
2018-06-09T01:59:28.280Z,64.34
2018-06-09T02:00:28.178Z,63.89
2018-06-09T02:01:28.088Z,64.63
2018-06-09T02:02:27.994Z,64.18
2018-06-09T02:03:27.904Z,63.76
2018-06-09T02:04:27.812Z,64.47
2018-06-09T02:05:27.710Z,64.53
2018-06-09T02:06:27.870Z,64.47
2018-06-09T02:07:27.527Z,64.43
2018-06-09T02:08:27.439Z,64.43
2018-06-09T02:09:27.346Z,64.43
2018-06-09T02:10:27.256Z,64.47
2018-06-09T02:11:27.152Z,64.66
2018-06-09T02:12:27.062Z,64.53
2018-06-09T02:13:26.971Z,64.63
2018-06-09T02:14:26.879Z,64.82
2018-06-09T02:15:26.790Z,64.43
2018-06-09T02:16:26.691Z,64.53
2018-06-09T02:17:26.595Z,64.56
2018-06-09T02:18:26.505Z,64.73
2018-06-09T02:19:26.436Z,64.37
2018-06-09T02:20:26.323Z,64.47
2018-06-09T02:21:26.236Z,64.56
2018-06-09T02:22:26.128Z,64.56
2018-06-09T02:23:26.038Z,64.47
2018-06-09T02:24:25.947Z,64.56
2018-06-09T02:25:25.856Z,64.53
2018-06-09T02:26:26.071Z,64.34
2018-06-09T02:27:25.662Z,65.33
2018-06-09T02:28:25.572Z,65.14
2018-06-09T02:29:25.480Z,64.86
2018-06-09T02:30:25.390Z,65.05
2018-06-09T02:31:25.298Z,65.40
2018-06-09T02:32:25.197Z,65.20
2018-06-09T02:33:25.105Z,65.43
2018-06-09T02:34:25.013Z,65.01
2018-06-09T02:35:24.924Z,65.05
2018-06-09T02:36:24.832Z,65.14
2018-06-09T02:37:24.730Z,65.30
2018-06-09T02:38:24.638Z,65.59
2018-06-09T02:39:24.547Z,65.88
2018-06-09T02:40:24.457Z,65.69
2018-06-09T02:41:24.365Z,65.69
2018-06-09T02:42:24.275Z,65.88
2018-06-09T02:43:24.172Z,66.17
2018-06-09T02:44:24.081Z,66.27
2018-06-09T02:45:23.991Z,66.27
2018-06-09T02:46:23.901Z,66.36
2018-06-09T02:47:23.797Z,65.98
2018-06-09T02:48:23.705Z,66.27
2018-06-09T02:49:23.614Z,66.75
2018-06-09T02:50:23.524Z,66.55
2018-06-09T02:51:23.433Z,66.85
2018-06-09T02:52:23.342Z,67.03
2018-06-09T02:53:23.241Z,66.75
2018-06-09T02:54:23.147Z,67.33
2018-06-09T02:55:23.057Z,67.42
2018-06-09T02:56:22.966Z,67.33
2018-06-09T02:57:22.876Z,67.13
2018-06-09T02:58:22.773Z,67.33
2018-06-09T02:59:22.681Z,67.42
2018-06-09T03:00:22.591Z,67.23
2018-06-09T03:01:22.513Z,66.94
2018-06-09T03:02:22.410Z,67.13
2018-06-09T03:03:22.306Z,66.94
2018-06-09T03:04:22.215Z,66.94
2018-06-09T03:05:22.125Z,66.94
2018-06-09T03:06:22.033Z,67.03
2018-06-09T03:07:21.934Z,67.71
2018-06-09T03:08:21.840Z,67.71
2018-06-09T03:09:21.748Z,67.52
2018-06-09T03:10:21.658Z,67.71
2018-06-09T03:11:21.817Z,67.29
2018-06-09T03:12:21.465Z,68.54
2018-06-09T03:13:21.373Z,68.29
2018-06-09T03:14:21.282Z,68.06
2018-06-09T03:15:21.192Z,68.44
2018-06-09T03:16:21.100Z,68.38
2018-06-09T03:17:20.998Z,68.48
2018-06-09T03:18:20.906Z,69.12
2018-06-09T03:19:20.818Z,68.74
2018-06-09T03:20:20.725Z,68.74
2018-06-09T03:21:20.883Z,68.74
2018-06-09T03:22:20.543Z,68.54
2018-06-09T03:23:20.439Z,68.16
2018-06-09T03:24:20.348Z,68.35
2018-06-09T03:25:20.259Z,68.54
2018-06-09T03:26:20.166Z,68.38
2018-06-09T03:27:20.080Z,67.90
2018-06-09T03:28:19.977Z,67.71
2018-06-09T03:29:19.882Z,67.42
2018-06-09T03:30:19.792Z,67.90
2018-06-09T03:31:19.700Z,67.71
2018-06-09T03:32:19.610Z,67.71
2018-06-09T03:33:19.507Z,67.71
2018-06-09T03:34:19.415Z,67.42
2018-06-09T03:35:19.325Z,67.33
2018-06-09T03:36:19.234Z,67.07
2018-06-09T03:37:19.144Z,67.07
2018-06-09T03:38:19.052Z,67.16
2018-06-09T03:39:18.949Z,67.46
2018-06-09T03:40:18.863Z,67.07
2018-06-09T03:41:18.767Z,66.69
2018-06-09T03:42:18.677Z,66.59
2018-06-09T03:43:18.658Z,66.59
2018-06-09T03:44:18.483Z,66.20
2018-06-09T03:45:18.393Z,66.39
2018-06-09T03:46:18.300Z,66.39
2018-06-09T03:47:18.210Z,66.59
2018-06-09T03:48:18.119Z,66.69
2018-06-09T03:49:18.017Z,65.72
2018-06-09T03:50:17.926Z,65.72
2018-06-09T03:51:17.837Z,65.43
2018-06-09T03:52:17.744Z,65.53
2018-06-09T03:53:17.653Z,65.81
2018-06-09T03:54:17.564Z,65.37
2018-06-09T03:55:17.471Z,65.17
2018-06-09T03:56:17.367Z,65.17
2018-06-09T03:57:17.277Z,64.69
2018-06-09T03:58:17.185Z,64.53
2018-06-09T03:59:17.098Z,64.92
2018-06-09T04:00:17.004Z,64.37
2018-06-09T04:01:17.214Z,62.63
2018-06-09T04:02:16.822Z,62.34
2018-06-09T04:03:16.719Z,62.95
2018-06-09T04:04:16.630Z,62.66
2018-06-09T04:05:16.537Z,61.77
2018-06-09T04:06:16.447Z,61.67
2018-06-09T04:07:16.355Z,62.05
2018-06-09T04:08:16.266Z,62.34
2018-06-09T04:09:16.178Z,62.60
2018-06-09T04:10:16.078Z,63.09
2018-06-09T04:11:16.242Z,63.18
2018-06-09T04:12:15.903Z,63.70
2018-06-09T04:13:15.800Z,62.41
2018-06-09T04:14:15.708Z,62.54
2018-06-09T04:15:15.618Z,63.21
2018-06-09T04:16:15.526Z,62.79
2018-06-09T04:17:15.437Z,63.31
2018-06-09T04:18:15.344Z,63.50
2018-06-09T04:19:15.254Z,62.44
2018-06-09T04:20:15.162Z,63.02
2018-06-09T04:21:15.074Z,61.80
2018-06-09T04:22:14.983Z,61.89
2018-06-09T04:23:14.892Z,61.99
2018-06-09T04:24:14.799Z,62.08
2018-06-09T04:25:14.698Z,61.44
2018-06-09T04:26:14.907Z,60.89
2018-06-09T04:27:14.517Z,59.05
2018-06-09T04:28:14.426Z,58.37
2018-06-09T04:29:14.333Z,58.40
2018-06-09T04:30:14.243Z,57.99
2018-06-09T04:31:14.152Z,57.60
2018-06-09T04:32:14.062Z,57.89
2018-06-09T04:33:13.970Z,57.89
2018-06-09T04:34:13.883Z,57.70
2018-06-09T04:35:13.788Z,57.12
2018-06-09T04:36:13.998Z,56.63
2018-06-09T04:37:13.607Z,57.34
2018-06-09T04:38:13.522Z,56.57
2018-06-09T04:39:13.426Z,56.11
2018-06-09T04:40:13.335Z,54.85
2018-06-09T04:41:13.244Z,54.13
2018-06-09T04:42:13.154Z,52.80
2018-06-09T04:43:13.063Z,51.47
2018-06-09T04:44:12.972Z,50.72
2018-06-09T04:45:12.880Z,49.17
2018-06-09T04:46:12.791Z,48.22
2018-06-09T04:47:12.699Z,48.03
2018-06-09T04:48:12.609Z,48.44
2018-06-09T04:49:12.520Z,47.76
2018-06-09T04:50:12.439Z,47.78
2018-06-09T04:51:12.350Z,46.60
2018-06-09T04:52:12.285Z,46.58
2018-06-09T04:53:12.167Z,46.69
2018-06-09T04:54:12.077Z,46.69
2018-06-09T04:55:11.986Z,46.69
2018-06-09T04:56:11.894Z,46.60
2018-06-09T04:57:11.804Z,46.41
2018-06-09T04:58:11.726Z,46.42
2018-06-09T04:59:11.637Z,46.06
2018-06-09T05:00:11.545Z,45.36
2018-06-09T05:01:11.453Z,44.60
2018-06-09T05:02:11.363Z,43.65
2018-06-09T05:03:11.272Z,43.67
2018-06-09T05:04:11.193Z,42.78
2018-06-09T05:05:11.102Z,42.85
2018-06-09T05:06:11.011Z,43.92
2018-06-09T05:07:10.929Z,44.38
2018-06-09T05:08:10.855Z,44.48
2018-06-09T05:09:10.751Z,44.58
2018-06-09T05:10:10.667Z,44.99
2018-06-09T05:11:10.570Z,43.54
2018-06-09T05:12:10.494Z,43.26
2018-06-09T05:13:10.402Z,42.58
2018-06-09T05:14:10.310Z,42.76
2018-06-09T05:15:10.220Z,43.44
2018-06-09T05:16:10.141Z,43.54
2018-06-09T05:17:10.050Z,42.78
2018-06-09T05:18:09.960Z,42.78
2018-06-09T05:19:09.869Z,42.02
2018-06-09T05:20:09.790Z,42.31
2018-06-09T05:21:10.000Z,42.41
2018-06-09T05:22:09.609Z,41.61
2018-06-09T05:23:09.522Z,42.97
2018-06-09T05:24:09.441Z,42.31
2018-06-09T05:25:09.359Z,42.14
2018-06-09T05:26:09.259Z,41.46
2018-06-09T05:27:09.180Z,41.75
2018-06-09T05:28:09.090Z,41.46
2018-06-09T05:29:08.999Z,41.55
2018-06-09T05:30:08.920Z,41.71
2018-06-09T05:31:08.829Z,42.66
2018-06-09T05:32:08.738Z,42.85
2018-06-09T05:33:08.661Z,42.97
2018-06-09T05:34:08.569Z,41.73
2018-06-09T05:35:08.478Z,41.36
2018-06-09T05:36:08.401Z,41.19
2018-06-09T05:37:08.309Z,40.50
2018-06-09T05:38:08.220Z,40.41
2018-06-09T05:39:08.143Z,39.65
2018-06-09T05:40:08.052Z,39.62
2018-06-09T05:41:07.962Z,39.62
2018-06-09T05:42:07.881Z,39.80
2018-06-09T05:43:07.790Z,40.56
2018-06-09T05:44:07.711Z,40.47
2018-06-09T05:45:07.621Z,40.56
2018-06-09T05:46:07.529Z,41.14
2018-06-09T05:47:07.451Z,40.97
2018-06-09T05:48:07.361Z,39.82
2018-06-09T05:49:07.283Z,40.13
2018-06-09T05:50:07.191Z,39.16
2018-06-09T05:51:07.101Z,39.92
2018-06-09T05:52:07.022Z,39.53
2018-06-09T05:53:06.931Z,39.92
2018-06-09T05:54:06.840Z,39.72
2018-06-09T05:55:06.764Z,39.70
2018-06-09T05:56:06.673Z,39.62
2018-06-09T05:57:06.592Z,39.80
2018-06-09T05:58:06.503Z,40.09
2018-06-09T05:59:06.412Z,39.70
2018-06-09T06:00:06.333Z,39.82
2018-06-09T06:01:06.243Z,40.39
2018-06-09T06:02:06.164Z,41.05
2018-06-09T06:03:06.140Z,40.68
2018-06-09T06:04:05.984Z,40.41
2018-06-09T06:05:05.904Z,39.14
2018-06-09T06:06:05.815Z,38.77
2018-06-09T06:07:05.735Z,40.03
2018-06-09T06:08:05.644Z,38.49
2018-06-09T06:09:05.566Z,38.67
2018-06-09T06:10:05.475Z,38.67
2018-06-09T06:11:05.384Z,38.95
2018-06-09T06:12:05.306Z,39.92
2018-06-09T06:13:05.227Z,39.70
2018-06-09T06:14:05.136Z,39.62
2018-06-09T06:15:05.047Z,39.82
2018-06-09T06:16:04.967Z,39.06
2018-06-09T06:17:04.876Z,38.89
2018-06-09T06:18:04.798Z,38.49
2018-06-09T06:19:04.708Z,38.51
2018-06-09T06:20:04.617Z,37.63
2018-06-09T06:21:04.788Z,38.40
2018-06-09T06:22:04.447Z,37.93
2018-06-09T06:23:04.368Z,37.93
2018-06-09T06:24:04.284Z,37.55
2018-06-09T06:25:04.200Z,36.99
2018-06-09T06:26:04.110Z,36.90
2018-06-09T06:27:04.031Z,37.17
2018-06-09T06:28:03.939Z,37.01
2018-06-09T06:29:03.862Z,36.68
2018-06-09T06:30:03.771Z,36.68
2018-06-09T06:31:03.693Z,36.88
2018-06-09T06:32:03.602Z,37.17
2018-06-09T06:33:03.524Z,37.54
2018-06-09T06:34:03.433Z,37.46
2018-06-09T06:35:03.354Z,36.98
2018-06-09T06:36:03.276Z,37.19
2018-06-09T06:37:03.176Z,36.72
2018-06-09T06:38:03.094Z,36.62
2018-06-09T06:39:03.017Z,37.19
2018-06-09T06:40:02.925Z,37.29
2018-06-09T06:41:03.100Z,37.19
2018-06-09T06:42:02.757Z,36.62
2018-06-09T06:43:02.679Z,35.45
2018-06-09T06:44:02.586Z,35.56
2018-06-09T06:45:02.548Z,35.19
2018-06-09T06:46:02.419Z,34.50
2018-06-09T06:47:02.341Z,34.52
2018-06-09T06:48:02.261Z,34.34
2018-06-09T06:49:02.171Z,33.58
2018-06-09T06:50:02.092Z,32.14
2018-06-09T06:51:02.002Z,32.35
2018-06-09T06:52:01.924Z,32.28
2018-06-09T06:53:01.845Z,31.22
2018-06-09T06:54:01.754Z,30.55
2018-06-09T06:55:01.675Z,30.38
2018-06-09T06:56:01.586Z,29.89
2018-06-09T06:57:01.510Z,29.39
2018-06-09T06:58:01.429Z,29.51
2018-06-09T06:59:01.340Z,29.20
2018-06-09T07:00:01.272Z,28.99
2018-06-09T07:01:01.186Z,29.20
2018-06-09T07:02:01.120Z,29.49
2018-06-09T07:03:01.012Z,29.10
2018-06-09T07:04:00.935Z,29.69
2018-06-09T07:05:00.855Z,29.86
2018-06-09T07:06:00.778Z,29.58
2018-06-09T07:07:00.687Z,29.28
2018-06-09T07:08:00.630Z,29.20
2018-06-09T07:09:00.542Z,29.30
2018-06-09T07:10:00.451Z,29.61
2018-06-09T07:11:00.372Z,28.91
2018-06-09T07:12:00.294Z,28.52
2018-06-09T07:13:00.204Z,28.52
2018-06-09T07:14:00.126Z,28.42
2018-06-09T07:15:00.051Z,28.33
2018-06-09T07:15:59.969Z,27.64
2018-06-09T07:16:59.897Z,27.94
2018-06-09T07:17:59.811Z,28.40
2018-06-09T07:18:59.720Z,28.58
2018-06-09T07:19:59.643Z,29.06
2018-06-09T07:20:59.565Z,29.34
2018-06-09T07:21:59.489Z,29.34
2018-06-09T07:22:59.411Z,29.24
2018-06-09T07:23:59.329Z,29.25
2018-06-09T07:24:59.239Z,29.68
2018-06-09T07:25:59.161Z,29.25
2018-06-09T07:26:59.082Z,29.25
2018-06-09T07:27:59.004Z,29.38
2018-06-09T07:28:58.927Z,29.09
2018-06-09T07:29:58.854Z,28.31
2018-06-09T07:30:58.757Z,28.33
2018-06-09T07:31:58.692Z,27.92
2018-06-09T07:32:58.600Z,27.84
2018-06-09T07:33:58.521Z,28.33
2018-06-09T07:34:58.443Z,27.66
2018-06-09T07:35:58.366Z,26.97
2018-06-09T07:36:58.286Z,27.62
2018-06-09T07:37:58.196Z,27.25
2018-06-09T07:38:58.117Z,27.37
2018-06-09T07:39:58.043Z,26.68
2018-06-09T07:40:57.964Z,26.45
2018-06-09T07:41:57.882Z,26.82
2018-06-09T07:42:57.805Z,27.19
2018-06-09T07:43:57.726Z,28.93
2018-06-09T07:44:57.636Z,28.77
2018-06-09T07:45:57.556Z,28.47
2018-06-09T07:46:57.479Z,27.99
2018-06-09T07:47:57.417Z,27.14
2018-06-09T07:48:57.334Z,27.32
2018-06-09T07:49:57.243Z,27.54
2018-06-09T07:50:57.168Z,27.05
2018-06-09T07:51:57.086Z,27.06
2018-06-09T07:52:56.996Z,25.98
2018-06-09T07:53:56.925Z,26.25
2018-06-09T07:54:56.839Z,26.92
2018-06-09T07:55:56.762Z,27.60
2018-06-09T07:56:56.683Z,26.91
2018-06-09T07:57:56.610Z,27.04
2018-06-09T07:58:56.526Z,26.35
2018-06-09T07:59:56.437Z,26.36
2018-06-09T08:00:56.357Z,26.17
2018-06-09T08:01:56.282Z,26.25
2018-06-09T08:02:56.201Z,27.57
2018-06-09T08:03:56.122Z,28.36
2018-06-09T08:04:56.051Z,27.99
2018-06-09T08:05:55.967Z,27.01
2018-06-09T08:06:55.945Z,27.31
2018-06-09T08:07:55.801Z,27.20
2018-06-09T08:08:55.718Z,26.62
2018-06-09T08:09:55.640Z,27.09
2018-06-09T08:10:55.562Z,27.35
2018-06-09T08:11:55.483Z,27.97
2018-06-09T08:12:55.408Z,28.25
2018-06-09T08:13:55.329Z,28.34
2018-06-09T08:14:55.234Z,27.97
2018-06-09T08:15:55.157Z,27.36
2018-06-09T08:16:55.079Z,28.34
2018-06-09T08:17:55.000Z,27.88
2018-06-09T08:18:54.912Z,26.81
2018-06-09T08:19:54.831Z,27.09
2018-06-09T08:20:54.754Z,27.19
2018-06-09T08:21:54.662Z,27.00
2018-06-09T08:22:54.583Z,26.87
2018-06-09T08:23:54.519Z,28.53
2018-06-09T08:24:54.415Z,27.87
2018-06-09T08:25:54.337Z,27.19
2018-06-09T08:26:54.245Z,27.17
2018-06-09T08:27:54.168Z,28.23
2018-06-09T08:28:54.076Z,28.25
2018-06-09T08:29:54.000Z,28.33
2018-06-09T08:30:53.907Z,28.05
2018-06-09T08:31:53.829Z,28.63
2018-06-09T08:32:53.738Z,28.03
2018-06-09T08:33:53.661Z,27.94
2018-06-09T08:34:53.568Z,26.97
2018-06-09T08:35:53.490Z,27.46
2018-06-09T08:36:53.400Z,27.28
2018-06-09T08:37:53.324Z,27.00
2018-06-09T08:38:53.231Z,27.00
2018-06-09T08:39:53.153Z,26.91
2018-06-09T08:40:53.063Z,26.04
2018-06-09T08:41:52.983Z,25.95
2018-06-09T08:42:52.892Z,26.25
2018-06-09T08:43:52.817Z,25.56
2018-06-09T08:44:52.724Z,25.48
2018-06-09T08:45:52.646Z,25.10
2018-06-09T08:46:52.566Z,24.15
2018-06-09T08:47:52.475Z,23.36
2018-06-09T08:48:52.410Z,23.25
2018-06-09T08:49:52.319Z,23.16
2018-06-09T08:50:52.229Z,23.75
2018-06-09T08:51:52.151Z,24.01
2018-06-09T08:52:52.072Z,25.20
2018-06-09T08:53:51.981Z,26.15
2018-06-09T08:54:51.904Z,26.25
2018-06-09T08:55:51.824Z,26.26
2018-06-09T08:56:51.779Z,26.36
2018-06-09T08:57:51.667Z,26.07
2018-06-09T08:58:51.577Z,25.98
2018-06-09T08:59:51.499Z,25.01
2018-06-09T09:00:51.421Z,25.78
2018-06-09T09:01:51.343Z,25.18
2018-06-09T09:02:51.264Z,26.05
2018-06-09T09:03:51.173Z,26.14
2018-06-09T09:04:51.094Z,26.72
2018-06-09T09:05:51.017Z,26.12
2018-06-09T09:06:50.937Z,27.28
2018-06-09T09:07:50.859Z,27.28
2018-06-09T09:08:50.781Z,26.98
2018-06-09T09:09:50.706Z,27.29
2018-06-09T09:10:50.613Z,26.51
2018-06-09T09:11:50.537Z,26.97
2018-06-09T09:12:50.455Z,27.26
2018-06-09T09:13:50.378Z,27.37
2018-06-09T09:14:50.300Z,27.02
2018-06-09T09:15:50.221Z,25.87
2018-06-09T09:16:50.147Z,25.21
2018-06-09T09:17:50.066Z,23.93
2018-06-09T09:18:49.973Z,24.38
2018-06-09T09:19:49.895Z,24.96
2018-06-09T09:20:50.066Z,26.12
2018-06-09T09:21:49.738Z,26.11
2018-06-09T09:22:49.661Z,26.03
2018-06-09T09:23:49.594Z,25.35
2018-06-09T09:24:49.503Z,25.45
2018-06-09T09:25:49.462Z,24.77
2018-06-09T09:26:49.349Z,25.05
2018-06-09T09:27:49.271Z,25.63
2018-06-09T09:28:49.189Z,25.26
2018-06-09T09:29:49.100Z,25.85
2018-06-09T09:30:49.021Z,24.90
2018-06-09T09:31:48.943Z,24.48
2018-06-09T09:32:48.865Z,25.34
2018-06-09T09:33:48.797Z,25.84
2018-06-09T09:34:48.708Z,25.07
2018-06-09T09:35:48.633Z,24.98
2018-06-09T09:36:48.552Z,24.58
2018-06-09T09:37:48.474Z,24.29
2018-06-09T09:38:48.395Z,23.03
2018-06-09T09:39:48.317Z,23.52
2018-06-09T09:40:48.240Z,23.53
2018-06-09T09:41:48.160Z,22.94
2018-06-09T09:42:48.082Z,23.72
2018-06-09T09:43:48.004Z,23.63
2018-06-09T09:44:47.926Z,23.31
2018-06-09T09:45:47.847Z,22.92
2018-06-09T09:46:47.768Z,22.74
2018-06-09T09:47:47.690Z,22.37
2018-06-09T09:48:47.612Z,21.66
2018-06-09T09:49:47.535Z,21.39
2018-06-09T09:50:47.455Z,21.26
2018-06-09T09:51:47.377Z,21.66
2018-06-09T09:52:47.324Z,23.29
2018-06-09T09:53:47.222Z,23.11
2018-06-09T09:54:47.146Z,22.81
2018-06-09T09:55:47.064Z,22.83
2018-06-09T09:56:46.985Z,22.16
2018-06-09T09:57:46.908Z,21.20
2018-06-09T09:58:46.830Z,21.11
2018-06-09T09:59:46.750Z,21.17
2018-06-09T10:00:46.673Z,22.81
2018-06-09T10:01:46.595Z,23.02
2018-06-09T10:02:46.515Z,22.55
2018-06-09T10:03:46.439Z,22.25
2018-06-09T10:04:46.392Z,22.74
2018-06-09T10:05:46.292Z,22.37
2018-06-09T10:06:46.215Z,21.60
2018-06-09T10:07:46.136Z,21.50
2018-06-09T10:08:46.058Z,20.91
2018-06-09T10:09:45.992Z,20.54
2018-06-09T10:10:45.901Z,20.83
2018-06-09T10:11:45.822Z,20.90
2018-06-09T10:12:45.758Z,20.72
2018-06-09T10:13:45.667Z,21.18
2018-06-09T10:14:45.601Z,21.09
2018-06-09T10:15:45.523Z,21.07
2018-06-09T10:16:45.444Z,21.66
2018-06-09T10:17:45.366Z,21.97
2018-06-09T10:18:45.299Z,20.78
2018-06-09T10:19:45.209Z,20.89
2018-06-09T10:20:45.143Z,21.01
2018-06-09T10:21:45.064Z,19.32
2018-06-09T10:22:44.987Z,19.59
2018-06-09T10:23:44.908Z,20.48
2018-06-09T10:24:44.829Z,21.36
2018-06-09T10:25:44.752Z,20.85
2018-06-09T10:26:44.688Z,20.87
2018-06-09T10:27:44.608Z,19.78
2018-06-09T10:28:44.529Z,19.70
2018-06-09T10:29:44.451Z,19.87
2018-06-09T10:30:44.384Z,20.65
2018-06-09T10:31:44.336Z,20.96
2018-06-09T10:32:44.257Z,20.47
2018-06-09T10:33:44.150Z,20.46
2018-06-09T10:34:44.085Z,20.50
2018-06-09T10:35:44.008Z,20.01
2018-06-09T10:36:43.928Z,20.12
2018-06-09T10:37:43.851Z,18.74
2018-06-09T10:38:43.789Z,18.63
2018-06-09T10:39:43.706Z,19.58
2018-06-09T10:40:43.626Z,20.56
2018-06-09T10:41:43.561Z,20.56
2018-06-09T10:42:43.483Z,21.15
2018-06-09T10:43:43.405Z,21.36
2018-06-09T10:44:43.328Z,21.45
2018-06-09T10:45:43.260Z,21.44
2018-06-09T10:46:43.184Z,22.02
2018-06-09T10:47:43.103Z,21.36
2018-06-09T10:48:43.026Z,20.67
2018-06-09T10:49:42.960Z,20.70
2018-06-09T10:50:42.881Z,19.51
2018-06-09T10:51:42.803Z,19.32
2018-06-09T10:52:42.725Z,18.65
2018-06-09T10:53:42.658Z,18.57
2018-06-09T10:54:42.580Z,18.30
2018-06-09T10:55:42.502Z,17.13
2018-06-09T10:56:42.423Z,17.43
2018-06-09T10:57:42.346Z,16.74
2018-06-09T10:58:42.280Z,16.96
2018-06-09T10:59:42.201Z,16.36
2018-06-09T11:00:42.123Z,16.49
2018-06-09T11:01:42.049Z,16.55
2018-06-09T11:02:41.978Z,17.42
2018-06-09T11:03:41.903Z,17.49
2018-06-09T11:04:41.822Z,17.47
2018-06-09T11:05:41.994Z,17.96
2018-06-09T11:06:41.679Z,17.87
2018-06-09T11:07:41.600Z,18.93
2018-06-09T11:08:41.524Z,19.34
2018-06-09T11:09:41.444Z,19.13
2018-06-09T11:10:41.379Z,20.11
2018-06-09T11:11:41.301Z,20.41
2018-06-09T11:12:41.222Z,20.30
2018-06-09T11:13:41.142Z,20.51
2018-06-09T11:14:41.066Z,20.14
2018-06-09T11:15:40.999Z,19.32
2018-06-09T11:16:40.921Z,19.40
2018-06-09T11:17:40.842Z,19.61
2018-06-09T11:18:40.764Z,19.03
2018-06-09T11:19:40.697Z,17.86
2018-06-09T11:20:40.870Z,17.88
2018-06-09T11:21:40.541Z,18.25
2018-06-09T11:22:40.466Z,18.35
2018-06-09T11:23:40.398Z,19.02
2018-06-09T11:24:40.319Z,20.01
2018-06-09T11:25:40.240Z,20.29
2018-06-09T11:26:40.163Z,19.90
2018-06-09T11:27:40.096Z,20.61
2018-06-09T11:28:40.031Z,19.13
2018-06-09T11:29:39.940Z,19.34
2018-06-09T11:30:39.861Z,19.61
2018-06-09T11:31:39.784Z,21.15
2018-06-09T11:32:39.717Z,21.44
2018-06-09T11:33:39.639Z,21.43
2018-06-09T11:34:39.561Z,21.63
2018-06-09T11:35:39.483Z,21.84
2018-06-09T11:36:39.430Z,21.26
2018-06-09T11:37:39.338Z,20.84
2018-06-09T11:38:39.260Z,21.15
2018-06-09T11:39:39.183Z,20.79
2018-06-09T11:40:39.103Z,19.82
2018-06-09T11:41:39.026Z,18.86
2018-06-09T11:42:38.962Z,19.82
2018-06-09T11:43:38.881Z,20.30
2018-06-09T11:44:38.803Z,20.98
2018-06-09T11:45:38.724Z,20.00
2018-06-09T11:46:38.646Z,19.90
2018-06-09T11:47:38.568Z,20.20
2018-06-09T11:48:38.501Z,20.50
2018-06-09T11:49:38.424Z,19.04
2018-06-09T11:50:38.344Z,18.65
2018-06-09T11:51:38.271Z,18.93
2018-06-09T11:52:38.189Z,19.60
2018-06-09T11:53:38.123Z,20.76
2018-06-09T11:54:38.044Z,21.25
2018-06-09T11:55:37.969Z,21.36
2018-06-09T11:56:37.890Z,21.46
2018-06-09T11:57:37.810Z,20.96
2018-06-09T11:58:37.772Z,21.06
2018-06-09T11:59:37.666Z,21.15
2018-06-09T12:00:37.587Z,22.31
2018-06-09T12:01:37.508Z,22.88
2018-06-09T12:02:37.429Z,23.28
2018-06-09T12:03:37.364Z,23.96
2018-06-09T12:04:37.274Z,23.85
2018-06-09T12:05:37.216Z,23.84
2018-06-09T12:06:37.130Z,23.55
2018-06-09T12:07:37.052Z,23.54
2018-06-09T12:08:36.973Z,24.62
2018-06-09T12:09:36.898Z,25.01
2018-06-09T12:10:36.817Z,25.10
2018-06-09T12:11:36.737Z,26.17
2018-06-09T12:12:36.671Z,25.88
2018-06-09T12:13:36.592Z,25.66
2018-06-09T12:14:36.514Z,25.95
2018-06-09T12:15:36.440Z,26.04
2018-06-09T12:16:36.359Z,27.49
2018-06-09T12:17:36.279Z,28.08
2018-06-09T12:18:36.201Z,27.49
2018-06-09T12:19:36.124Z,27.88
2018-06-09T12:20:36.046Z,27.49
2018-06-09T12:21:35.966Z,27.39
2018-06-09T12:22:35.888Z,28.09
2018-06-09T12:23:35.811Z,28.19
2018-06-09T12:24:35.731Z,28.57
2018-06-09T12:25:35.903Z,28.18
2018-06-09T12:26:35.575Z,28.28
2018-06-09T12:27:35.485Z,28.57
2018-06-09T12:28:35.406Z,28.08
2018-06-09T12:29:35.329Z,28.08
2018-06-09T12:30:35.251Z,28.36
2018-06-09T12:31:35.160Z,28.06
2018-06-09T12:32:35.137Z,28.06
2018-06-09T12:33:35.002Z,28.55
2018-06-09T12:34:34.912Z,28.28
2018-06-09T12:35:34.835Z,27.49
2018-06-09T12:36:34.755Z,27.50
2018-06-09T12:37:34.667Z,25.93
2018-06-09T12:38:34.585Z,27.20
2018-06-09T12:39:34.507Z,27.49
2018-06-09T12:40:34.417Z,26.71
2018-06-09T12:41:34.339Z,27.29
2018-06-09T12:42:34.246Z,27.10
2018-06-09T12:43:34.169Z,27.39
2018-06-09T12:44:34.091Z,27.88
2018-06-09T12:45:34.252Z,28.19
2018-06-09T12:46:33.922Z,26.90
2018-06-09T12:47:33.830Z,28.18
2018-06-09T12:48:33.819Z,29.16
2018-06-09T12:49:33.663Z,29.27
2018-06-09T12:50:33.583Z,29.28
2018-06-09T12:51:33.510Z,28.50